Time;durP1;ratioP1;P1;durP2;ratioP2;P2;SDS_P1;SDS_P2;PMS_P1;PMS_P2;Temp;Humidity;BMP_temperature;BMP_pressure;BME280_temperature;BME280_humidity;BME280_pressure;Samples;Min_cycle;Max_cycle;Signal;HPM_P1;HPM_P2
2022/11/22 00:02:20;;;;;;;;;2.00;0.00;;;;;6.93;73.55;98913.31;5078171;27;45525;-63
2022/11/22 00:04:46;;;;;;;;;4.00;0.00;;;;;6.87;73.67;98911.06;5079870;27;45988;-61
2022/11/22 00:07:11;;;;;;;;;2.25;0.50;;;;;6.86;74.61;98909.38;5077513;27;45359;-63
2022/11/22 00:09:36;;;;;;;;;2.50;0.00;;;;;6.93;74.43;98925.69;5060806;28;45342;-62
2022/11/22 00:12:02;;;;;;;;;1.50;1.50;;;;;6.93;74.40;98931.81;5079741;28;45284;-64
2022/11/22 00:14:28;;;;;;;;;6.50;1.75;;;;;6.89;74.45;98925.00;5079683;27;45654;-63
2022/11/22 00:16:53;;;;;;;;;2.50;2.00;;;;;6.88;74.47;98930.41;5080502;27;45500;-65
2022/11/22 00:19:19;;;;;;;;;2.00;2.00;;;;;6.88;74.18;98928.59;5079043;28;45233;-63
2022/11/22 00:21:44;;;;;;;;;4.50;1.00;;;;;6.82;74.23;98918.47;5066526;27;45282;-64
2022/11/22 00:24:13;;;;;;;;;2.00;2.00;;;;;6.63;74.36;98896.84;5059427;28;46278;-65
2022/11/22 00:26:38;;;;;;;;;2.00;2.00;;;;;6.79;74.42;98916.03;5063252;27;45731;-64
2022/11/22 00:29:04;;;;;;;;;1.25;0.50;;;;;6.83;74.62;98929.88;5060100;27;45922;-67
2022/11/22 00:31:30;;;;;;;;;1.00;0.75;;;;;6.81;74.77;98932.63;5060655;28;45447;-64
2022/11/22 00:33:55;;;;;;;;;5.00;1.00;;;;;6.80;74.58;98920.38;5060709;28;46925;-64
2022/11/22 00:36:21;;;;;;;;;2.50;1.00;;;;;6.72;74.58;98905.00;5049628;28;45476;-64
2022/11/22 00:38:47;;;;;;;;;2.00;0.00;;;;;6.77;74.74;98920.56;5080370;27;45286;-61
2022/11/22 00:41:12;;;;;;;;;0.00;0.00;;;;;6.80;74.53;98929.13;5076824;27;45947;-65
2022/11/22 00:43:38;;;;;;;;;3.50;1.00;;;;;6.66;74.00;98891.38;5076372;27;45254;-65
2022/11/22 00:46:03;;;;;;;;;1.25;1.00;;;;;6.73;74.37;98916.44;5078224;27;45287;-60
2022/11/22 00:48:28;;;;;;;;;3.00;1.00;;;;;6.78;74.11;98922.28;5077652;27;45369;-62
2022/11/22 00:50:54;;;;;;;;;2.00;1.00;;;;;6.78;74.48;98932.84;5079193;27;45369;-64
2022/11/22 00:53:24;;;;;;;;;1.00;0.50;;;;;6.67;74.21;98906.28;5059763;28;45435;-62
2022/11/22 00:55:49;;;;;;;;;2.00;1.00;;;;;6.80;74.32;98921.22;5077739;27;45478;-66
2022/11/22 00:58:15;;;;;;;;;2.00;1.00;;;;;6.67;74.48;98904.50;5082736;27;45748;-65
2022/11/22 01:00:40;;;;;;;;;2.00;0.50;;;;;6.64;74.63;98903.81;5069941;28;45627;-62
2022/11/22 01:03:06;;;;;;;;;1.25;0.00;;;;;6.73;73.98;98919.91;5041072;28;45835;-61
2022/11/22 01:05:31;;;;;;;;;3.00;1.00;;;;;6.82;73.58;98933.47;5064361;27;45574;-64
2022/11/22 01:07:57;;;;;;;;;2.00;1.00;;;;;6.78;74.30;98923.13;5058422;28;45324;-61
2022/11/22 01:10:22;;;;;;;;;4.50;1.00;;;;;6.79;73.94;98924.81;5058252;28;45309;-62
2022/11/22 01:12:48;;;;;;;;;8.50;0.50;;;;;6.77;74.28;98924.06;5039752;28;46537;-62
2022/11/22 01:15:14;;;;;;;;;1.50;0.00;;;;;6.80;74.11;98930.94;5057959;28;45241;-63
2022/11/22 01:17:40;;;;;;;;;0.00;0.00;;;;;6.82;73.64;98910.53;5068350;28;45280;-63
2022/11/22 01:20:06;;;;;;;;;0.00;0.00;;;;;6.84;73.81;98913.91;5074559;27;45353;-63
2022/11/22 01:22:32;;;;;;;;;1.00;1.00;;;;;6.82;73.62;98907.91;5059521;28;46901;-63
2022/11/22 01:24:57;;;;;;;;;0.00;0.00;;;;;6.81;74.21;98903.56;5077811;27;45448;-62
2022/11/22 01:27:23;;;;;;;;;5.00;1.00;;;;;6.82;74.23;98913.19;5078000;28;45456;-64
2022/11/22 01:29:48;;;;;;;;;0.25;0.25;;;;;6.83;74.02;98909.59;5078002;27;45533;-63
2022/11/22 01:32:14;;;;;;;;;0.50;0.50;;;;;6.84;74.07;98900.72;5077400;28;45298;-64
2022/11/22 01:34:39;;;;;;;;;1.00;1.00;;;;;6.86;74.57;98904.09;5069914;27;45390;-64
2022/11/22 01:37:05;;;;;;;;;2.00;1.00;;;;;6.86;73.88;98897.97;5057595;28;45331;-64
2022/11/22 01:39:30;;;;;;;;;3.50;0.00;;;;;6.80;73.43;98888.66;5057540;28;45492;-65
2022/11/22 01:41:56;;;;;;;;;2.00;0.00;;;;;6.85;73.42;98894.47;5057970;28;46005;-63
2022/11/22 01:44:25;;;;;;;;;0.50;0.50;;;;;6.83;73.70;98896.38;5076921;27;45422;-62
2022/11/22 01:46:56;;;;;;;;;2.00;1.00;;;;;6.85;74.04;98897.13;5077877;27;45414;-63
2022/11/22 01:49:25;;;;;;;;;8.75;1.75;;;;;6.89;74.09;98881.88;5077736;28;45385;-62
2022/11/22 01:51:54;;;;;;;;;1.00;1.00;;;;;6.89;74.19;98888.00;5058828;28;46119;-65
2022/11/22 01:54:23;;;;;;;;;2.00;0.25;;;;;6.92;73.50;98895.75;5066145;27;45336;-62
2022/11/22 01:56:55;;;;;;;;;2.75;1.00;;;;;6.92;73.72;98884.34;5084544;27;45310;-62
2022/11/22 01:59:27;;;;;;;;;1.75;1.00;;;;;6.99;73.63;98882.97;5077473;27;45537;-64
2022/11/22 02:01:53;;;;;;;;;0.75;0.50;;;;;7.00;73.92;98892.56;5079628;27;45434;-66
2022/11/22 02:04:20;;;;;;;;;1.00;1.00;;;;;7.06;74.08;98898.31;5074873;27;45274;-65
2022/11/22 02:07:17;;;;;;;;;1.75;1.00;;;;;7.02;73.38;98880.94;5076370;27;46779;-63
2022/11/22 02:09:45;;;;;;;;;0.00;0.00;;;;;7.03;74.37;98890.59;5044739;27;45270;-64
2022/11/22 02:12:12;;;;;;;;;0.25;0.25;;;;;7.03;73.67;98885.31;5076690;27;45326;-62
2022/11/22 02:14:39;;;;;;;;;4.25;0.00;;;;;7.08;73.95;98883.19;5076632;27;45506;-63
2022/11/22 02:17:04;;;;;;;;;0.50;0.00;;;;;7.09;74.31;98884.88;5083725;27;45494;-64
2022/11/22 02:19:36;;;;;;;;;1.25;0.00;;;;;7.08;73.77;98904.31;5093553;27;45298;-63
2022/11/22 02:22:13;;;;;;;;;1.25;1.00;;;;;7.05;74.09;98887.84;5049274;27;48696;-63
2022/11/22 02:24:47;;;;;;;;;2.00;0.00;;;;;6.98;74.30;98876.81;5084501;27;45477;-64
2022/11/22 02:27:13;;;;;;;;;3.00;1.50;;;;;7.02;74.48;98878.31;5077515;28;45396;-65
2022/11/22 02:29:39;;;;;;;;;2.00;1.00;;;;;7.03;74.04;98885.31;5075892;27;45569;-61
2022/11/22 02:32:04;;;;;;;;;0.00;0.00;;;;;6.97;74.65;98890.16;5076292;27;47341;-64
2022/11/22 02:34:40;;;;;;;;;2.00;0.25;;;;;6.94;74.54;98883.28;5075968;27;45304;-61
2022/11/22 02:37:06;;;;;;;;;0.25;0.25;;;;;6.96;75.18;98878.72;5056708;28;45466;-62
2022/11/22 02:39:31;;;;;;;;;0.00;0.00;;;;;6.89;74.62;98874.81;5058926;27;45493;-63
2022/11/22 02:41:56;;;;;;;;;4.75;0.00;;;;;6.93;74.77;98878.94;5057699;27;46413;-65
2022/11/22 02:44:23;;;;;;;;;2.25;1.00;;;;;6.93;75.32;98876.31;5077409;27;45610;-62
2022/11/22 02:46:52;;;;;;;;;2.50;0.00;;;;;6.85;75.02;98870.69;5066015;27;45296;-66
2022/11/22 02:49:21;;;;;;;;;0.00;0.00;;;;;6.88;75.62;98882.84;5071498;27;45485;-64
2022/11/22 02:51:47;;;;;;;;;0.00;0.00;;;;;6.76;75.49;98855.44;5087932;27;45488;-62
2022/11/22 02:54:12;;;;;;;;;0.00;0.00;;;;;6.83;75.82;98864.66;5081425;27;45328;-65
2022/11/22 02:56:38;;;;;;;;;1.00;1.00;;;;;6.83;75.40;98853.25;5078086;27;45255;-64
2022/11/22 02:59:03;;;;;;;;;3.50;1.00;;;;;6.90;75.57;98858.03;5072633;27;45425;-63
2022/11/22 03:01:29;;;;;;;;;0.75;0.00;;;;;6.93;75.96;98859.59;5072874;27;45964;-61
2022/11/22 03:03:54;;;;;;;;;1.50;1.50;;;;;6.89;75.03;98851.03;5070987;27;45261;-61
2022/11/22 03:06:20;;;;;;;;;1.50;0.50;;;;;6.92;75.96;98850.84;5067554;27;45311;-64
2022/11/22 03:08:47;;;;;;;;;1.25;1.00;;;;;6.95;75.67;98850.63;5057876;28;45598;-64
2022/11/22 03:11:13;;;;;;;;;1.00;1.00;;;;;7.00;75.52;98848.50;5078196;27;46233;-63
2022/11/22 03:13:38;;;;;;;;;2.00;0.00;;;;;7.06;75.94;98848.09;5074539;27;45393;-61
2022/11/22 03:16:04;;;;;;;;;0.00;0.00;;;;;7.08;75.57;98840.88;5057999;28;45618;-66
2022/11/22 03:18:32;;;;;;;;;2.00;0.50;;;;;7.12;75.82;98840.66;5077335;28;45430;-65
2022/11/22 03:21:04;;;;;;;;;1.50;0.00;;;;;7.14;75.72;98833.47;5077079;28;46342;-63
2022/11/22 03:23:30;;;;;;;;;1.25;0.75;;;;;7.09;75.50;98831.16;5051911;28;45484;-65
2022/11/22 03:25:55;;;;;;;;;0.00;0.00;;;;;7.10;75.11;98831.03;5056052;27;45455;-65
2022/11/22 03:28:21;;;;;;;;;1.75;1.00;;;;;7.14;75.79;98828.19;5056744;28;45610;-65
2022/11/22 03:30:46;;;;;;;;;0.50;0.00;;;;;7.15;75.64;98835.16;5058171;28;46164;-65
2022/11/22 03:33:11;;;;;;;;;0.50;0.50;;;;;7.13;75.61;98826.50;5056965;27;45470;-65
2022/11/22 03:35:37;;;;;;;;;0.75;0.75;;;;;7.18;75.89;98834.97;5056004;28;45408;-66
2022/11/22 03:38:03;;;;;;;;;1.00;1.00;;;;;7.13;75.67;98827.34;5072610;27;45284;-64
2022/11/22 03:40:28;;;;;;;;;1.00;1.00;;;;;7.12;75.61;98822.16;5065964;28;45438;-62
2022/11/22 03:42:53;;;;;;;;;0.00;0.00;;;;;7.16;76.02;98832.44;5064875;27;45217;-62
2022/11/22 03:45:19;;;;;;;;;2.75;1.00;;;;;7.19;76.15;98834.00;5078631;27;47037;-60
2022/11/22 03:47:44;;;;;;;;;4.00;0.75;;;;;6.82;76.16;98767.00;5097171;27;45561;-61
2022/11/22 03:50:10;;;;;;;;;2.00;0.50;;;;;7.15;75.96;98816.66;5075176;27;46158;-62
2022/11/22 03:52:35;;;;;;;;;2.00;0.00;;;;;7.22;75.82;98837.28;5051317;28;45505;-64
2022/11/22 03:55:01;;;;;;;;;0.75;0.75;;;;;7.24;75.85;98827.44;5074437;27;49201;-65
2022/11/22 03:57:27;;;;;;;;;0.25;0.25;;;;;7.22;75.81;98815.28;5057630;28;45543;-64
2022/11/22 03:59:52;;;;;;;;;0.25;0.25;;;;;7.26;76.00;98829.97;5078467;27;46184;-64
2022/11/22 04:02:17;;;;;;;;;0.00;0.00;;;;;7.23;76.48;98822.25;5076123;27;45458;-65
2022/11/22 04:04:43;;;;;;;;;0.75;0.75;;;;;7.35;75.73;98834.63;5075246;27;45611;-65
2022/11/22 04:07:08;;;;;;;;;0.00;0.00;;;;;7.30;76.13;98834.09;5064960;28;45463;-65
2022/11/22 04:09:33;;;;;;;;;0.25;0.25;;;;;7.27;76.47;98829.84;5072569;27;45471;-65
2022/11/22 04:11:59;;;;;;;;;0.00;0.00;;;;;7.31;76.26;98827.88;5076027;27;45263;-66
2022/11/22 04:17:39;;;;;;;;;4.25;0.00;;;;;7.31;76.22;98825.22;4992707;28;45433;-62
2022/11/22 04:23:04;;;;;;;;;0.50;0.50;;;;;7.25;76.35;98812.41;5051024;27;45468;-63
2022/11/22 04:25:31;;;;;;;;;0.00;0.00;;;;;7.40;76.43;98819.25;5060799;28;45787;-65
2022/11/22 04:27:57;;;;;;;;;0.00;0.00;;;;;7.44;76.02;98815.47;5046345;28;45459;-63
2022/11/22 04:33:09;;;;;;;;;0.25;0.00;;;;;7.42;76.20;98793.53;5077129;27;45476;-62
2022/11/22 04:35:34;;;;;;;;;1.25;0.00;;;;;7.52;76.40;98801.66;5078819;27;45445;-62
2022/11/22 04:38:00;;;;;;;;;0.00;0.00;;;;;7.50;76.30;98785.91;5081648;27;45461;-61
2022/11/22 04:40:25;;;;;;;;;1.00;1.00;;;;;7.56;75.89;98788.13;5081601;27;45499;-61
2022/11/22 04:45:35;;;;;;;;;0.50;0.00;;;;;7.54;75.81;98778.59;5077808;27;45554;-61
2022/11/22 04:48:00;;;;;;;;;0.25;0.25;;;;;7.61;76.11;98787.78;5078732;28;45552;-63
2022/11/22 04:53:16;;;;;;;;;0.50;0.00;;;;;7.63;75.74;98788.50;5077286;27;45382;-62
2022/11/22 04:55:45;;;;;;;;;5.00;0.75;;;;;7.60;76.03;98786.09;5058949;27;45239;-61
2022/11/22 04:58:11;;;;;;;;;4.00;1.00;;;;;7.61;75.85;98791.28;5064026;27;45534;-61
2022/11/22 05:00:36;;;;;;;;;1.00;0.25;;;;;7.65;76.05;98802.47;5067433;28;45474;-62
2022/11/22 05:03:03;;;;;;;;;2.00;0.50;;;;;7.68;75.72;98803.13;5078783;27;45490;-61
2022/11/22 05:05:29;;;;;;;;;1.50;0.00;;;;;7.62;75.50;98789.47;5080237;27;45718;-62
2022/11/22 05:07:55;;;;;;;;;1.00;0.00;;;;;7.68;75.60;98792.53;5080426;27;45640;-61
2022/11/22 05:10:21;;;;;;;;;0.00;0.00;;;;;7.65;75.64;98799.81;5078587;27;45249;-63
2022/11/22 05:12:46;;;;;;;;;2.00;0.00;;;;;7.65;75.55;98782.16;5079676;27;45313;-62
2022/11/22 05:15:12;;;;;;;;;0.00;0.00;;;;;7.74;75.58;98800.97;5077812;28;45333;-62
2022/11/22 05:17:38;;;;;;;;;2.00;0.00;;;;;7.71;75.92;98793.25;5078435;27;45314;-63
2022/11/22 05:20:07;;;;;;;;;0.00;0.00;;;;;7.69;75.95;98778.34;5078297;28;45997;-64
2022/11/22 05:25:17;;;;;;;;;0.50;0.00;;;;;7.72;75.93;98771.97;5042323;27;45426;-64
2022/11/22 05:27:43;;;;;;;;;0.00;0.00;;;;;7.79;76.55;98775.00;5079022;27;45370;-63
2022/11/22 05:30:08;;;;;;;;;0.00;0.00;;;;;7.77;76.73;98790.16;5077685;28;45272;-69
2022/11/22 05:32:34;;;;;;;;;0.00;0.00;;;;;7.79;76.37;98798.81;5076268;28;45274;-64
2022/11/22 05:35:00;;;;;;;;;2.00;0.00;;;;;7.64;77.81;98777.81;5077454;27;45469;-67
2022/11/22 05:37:26;;;;;;;;;0.00;0.00;;;;;7.72;78.39;98801.09;5078274;27;45188;-64
2022/11/22 05:39:51;;;;;;;;;0.75;0.75;;;;;7.72;79.00;98797.59;5075976;27;47424;-64
2022/11/22 05:42:17;;;;;;;;;0.00;0.00;;;;;7.68;78.82;98803.13;5059183;28;45212;-63
2022/11/22 05:44:42;;;;;;;;;0.00;0.00;;;;;7.58;79.16;98794.16;5076902;27;45500;-63
2022/11/22 05:47:08;;;;;;;;;0.00;0.00;;;;;7.54;79.51;98789.16;5057649;28;45882;-64
2022/11/22 05:49:34;;;;;;;;;0.00;0.00;;;;;7.62;80.42;98803.53;5063761;27;46164;-62
2022/11/22 05:51:59;;;;;;;;;0.25;0.25;;;;;7.58;81.20;98812.66;5057285;28;45395;-67
2022/11/22 05:54:25;;;;;;;;;2.00;0.75;;;;;7.55;81.31;98819.94;5067425;27;45348;-63
2022/11/22 05:56:50;;;;;;;;;1.00;1.00;;;;;7.56;80.93;98822.53;5077789;27;45561;-65
2022/11/22 05:59:16;;;;;;;;;0.50;0.00;;;;;7.52;80.46;98813.09;5077492;27;46665;-65
2022/11/22 06:01:41;;;;;;;;;0.00;0.00;;;;;7.38;80.56;98800.00;5075658;27;45494;-65
2022/11/22 06:04:07;;;;;;;;;0.00;0.00;;;;;7.56;80.84;98825.16;5079530;27;45425;-63
2022/11/22 06:06:32;;;;;;;;;0.50;0.50;;;;;7.36;81.28;98780.78;5064089;28;45991;-63
2022/11/22 06:08:58;;;;;;;;;0.00;0.00;;;;;7.58;80.65;98811.81;5082469;27;46005;-62
2022/11/22 06:11:25;;;;;;;;;1.00;0.00;;;;;7.57;80.73;98810.97;5060843;27;45641;-64
2022/11/22 06:13:55;;;;;;;;;1.00;0.00;;;;;7.45;81.47;98774.81;5058507;28;45192;-62
2022/11/22 06:16:21;;;;;;;;;0.00;0.00;;;;;7.39;81.39;98764.66;5057600;28;45581;-63
2022/11/22 06:18:47;;;;;;;;;0.00;0.00;;;;;7.53;81.29;98788.31;5080085;27;45544;-63
2022/11/22 06:21:15;;;;;;;;;0.00;0.00;;;;;7.49;80.57;98786.03;5073665;27;45370;-65
2022/11/22 06:23:42;;;;;;;;;0.00;0.00;;;;;7.54;81.76;98784.72;5071317;27;45457;-63
2022/11/22 06:26:10;;;;;;;;;0.25;0.00;;;;;7.55;81.29;98791.72;5078946;27;45564;-65
2022/11/22 06:28:37;;;;;;;;;0.00;0.00;;;;;7.52;81.79;98791.94;5079964;27;45369;-62
2022/11/22 06:31:13;;;;;;;;;1.00;1.00;;;;;7.58;81.89;98786.22;5076188;27;45489;-64
2022/11/22 06:33:40;;;;;;;;;0.50;0.50;;;;;7.63;80.95;98797.28;5076005;27;45405;-65
2022/11/22 06:36:17;;;;;;;;;0.00;0.00;;;;;7.65;80.91;98803.31;5075780;27;45612;-64
2022/11/22 06:38:44;;;;;;;;;0.00;0.00;;;;;7.62;80.97;98803.53;5078548;27;46339;-65
2022/11/22 06:41:11;;;;;;;;;1.00;1.00;;;;;7.67;81.73;98801.41;5058513;27;45712;-64
2022/11/22 06:43:38;;;;;;;;;0.50;0.00;;;;;7.67;80.18;98796.09;5075999;27;45447;-61
2022/11/22 06:46:05;;;;;;;;;1.00;1.00;;;;;7.72;80.27;98792.31;5057407;28;45330;-62
2022/11/22 06:48:33;;;;;;;;;1.00;0.00;;;;;7.72;80.36;98792.31;5057672;28;48338;-63
2022/11/22 06:51:03;;;;;;;;;1.00;0.00;;;;;7.75;79.73;98802.66;5075691;27;45892;-63
2022/11/22 06:53:31;;;;;;;;;0.00;0.00;;;;;7.79;79.71;98804.09;5076081;27;45431;-63
2022/11/22 06:56:08;;;;;;;;;4.50;0.75;;;;;7.83;80.02;98805.59;5075083;27;45282;-66
2022/11/22 06:58:34;;;;;;;;;0.25;0.00;;;;;7.86;78.50;98810.66;5082113;27;46133;-65
2022/11/22 07:01:05;;;;;;;;;1.00;0.00;;;;;7.87;79.75;98812.34;5056362;27;45774;-66
2022/11/22 07:03:32;;;;;;;;;1.00;1.00;;;;;7.92;79.83;98815.50;5058149;28;45391;-65
2022/11/22 07:05:58;;;;;;;;;0.75;0.75;;;;;7.92;79.01;98804.91;5071124;27;45549;-65
2022/11/22 07:08:23;;;;;;;;;0.00;0.00;;;;;7.97;78.95;98819.50;5074931;27;45519;-66
2022/11/22 07:10:49;;;;;;;;;0.75;0.00;;;;;7.99;79.24;98816.75;5063879;27;45308;-65
2022/11/22 07:13:14;;;;;;;;;0.00;0.00;;;;;8.04;78.88;98819.88;5052100;27;45553;-66
2022/11/22 07:15:40;;;;;;;;;0.00;0.00;;;;;8.07;78.61;98818.81;5046851;27;45864;-68
2022/11/22 07:18:05;;;;;;;;;0.00;0.00;;;;;8.05;79.07;98810.13;5065717;27;46373;-65
2022/11/22 07:20:31;;;;;;;;;2.00;1.00;;;;;8.10;77.87;98818.59;5080576;27;45386;-66
2022/11/22 07:22:56;;;;;;;;;1.00;1.00;;;;;8.08;78.25;98808.13;5081151;27;45429;-68
2022/11/22 07:25:22;;;;;;;;;0.00;0.00;;;;;8.17;77.71;98825.97;5073239;28;45506;-65
2022/11/22 07:27:47;;;;;;;;;1.00;0.00;;;;;8.09;78.05;98801.88;5070153;27;45397;-67
2022/11/22 07:30:13;;;;;;;;;0.00;0.00;;;;;8.19;77.66;98824.03;5069353;27;45429;-67
2022/11/22 07:32:38;;;;;;;;;1.00;0.00;;;;;8.11;77.46;98813.19;5050664;28;45484;-64
2022/11/22 07:35:04;;;;;;;;;0.00;0.00;;;;;8.22;77.92;98844.19;5052190;28;45387;-68
2022/11/22 07:37:31;;;;;;;;;2.00;0.25;;;;;8.26;77.70;98846.47;5067252;27;45942;-65
2022/11/22 07:39:56;;;;;;;;;1.00;1.00;;;;;8.28;77.41;98876.31;5051794;27;45533;-68
2022/11/22 07:42:25;;;;;;;;;0.00;0.00;;;;;8.26;78.15;98846.47;5076004;28;45397;-65
2022/11/22 07:44:50;;;;;;;;;0.00;0.00;;;;;8.26;77.66;98862.38;5068597;27;45618;-65
2022/11/22 07:47:16;;;;;;;;;0.00;0.00;;;;;8.24;77.30;98851.03;5058863;27;45439;-67
2022/11/22 07:49:42;;;;;;;;;0.00;0.00;;;;;8.22;77.92;98854.75;5068049;27;46757;-67
2022/11/22 07:52:07;;;;;;;;;0.00;0.00;;;;;8.22;77.47;98857.41;5072074;27;45454;-66
2022/11/22 07:54:33;;;;;;;;;0.00;0.00;;;;;8.21;77.22;98869.81;5072972;28;45522;-66
2022/11/22 07:56:58;;;;;;;;;0.00;0.00;;;;;8.09;77.81;98844.25;5073502;27;46285;-67
2022/11/22 07:59:24;;;;;;;;;0.00;0.00;;;;;8.24;77.97;98864.28;5088971;27;45413;-68
2022/11/22 08:01:49;;;;;;;;;0.00;0.00;;;;;8.23;77.68;98857.31;5077096;27;45381;-68
2022/11/22 08:04:15;;;;;;;;;0.00;0.00;;;;;8.15;79.14;98869.41;5058600;27;45614;-69
2022/11/22 08:06:40;;;;;;;;;0.00;0.00;;;;;8.14;79.55;98863.25;5077350;28;45240;-68
2022/11/22 08:09:06;;;;;;;;;0.00;0.00;;;;;8.11;79.66;98865.31;5068904;27;45342;-66
2022/11/22 08:11:31;;;;;;;;;1.00;0.00;;;;;8.10;80.88;98868.91;5080595;27;45374;-66
2022/11/22 08:13:57;;;;;;;;;0.50;0.00;;;;;7.98;80.58;98860.06;5075365;27;45454;-67
2022/11/22 08:16:22;;;;;;;;;0.75;0.00;;;;;8.01;80.45;98866.91;5065449;27;45481;-70
2022/11/22 08:18:49;;;;;;;;;0.00;0.00;;;;;8.06;81.06;98875.34;5078543;27;45347;-71
2022/11/22 08:21:17;;;;;;;;;0.00;0.00;;;;;8.05;80.81;98869.22;5081669;27;45480;-69
2022/11/22 08:23:43;;;;;;;;;5.25;0.00;;;;;8.07;81.07;98877.91;5072014;27;45533;-67
2022/11/22 08:26:13;;;;;;;;;0.00;0.00;;;;;8.08;80.63;98874.31;5070256;27;45880;-70
2022/11/22 08:28:40;;;;;;;;;1.25;0.00;;;;;8.10;80.59;98877.69;5071817;27;45497;-69
2022/11/22 08:31:20;;;;;;;;;0.25;0.25;;;;;8.13;80.38;98871.31;5071733;27;45375;-69
2022/11/22 08:33:49;;;;;;;;;0.25;0.00;;;;;8.17;80.86;98862.19;5046380;28;45528;-69
2022/11/22 08:36:17;;;;;;;;;0.50;0.00;;;;;8.17;80.36;98876.28;5067705;27;46297;-69
2022/11/22 08:38:43;;;;;;;;;0.50;0.50;;;;;8.13;80.79;98876.63;5066879;27;45439;-70
2022/11/22 08:41:09;;;;;;;;;0.00;0.00;;;;;8.11;81.42;98884.69;5067861;27;45384;-66
2022/11/22 08:43:35;;;;;;;;;2.00;0.25;;;;;8.10;81.50;98880.34;5043622;27;45654;-67
2022/11/22 08:46:01;;;;;;;;;1.00;1.00;;;;;8.10;81.81;98883.00;5058948;28;45363;-69
2022/11/22 08:48:28;;;;;;;;;0.25;0.25;;;;;8.18;81.70;98896.50;5070416;28;45324;-67
2022/11/22 08:50:59;;;;;;;;;0.00;0.00;;;;;8.23;81.99;98898.81;5074957;27;45390;-67
2022/11/22 08:53:25;;;;;;;;;1.00;0.00;;;;;8.33;81.45;98910.41;5076309;28;45350;-69
2022/11/22 08:55:58;;;;;;;;;0.50;0.50;;;;;8.39;80.70;98904.72;5061170;28;45424;-68
2022/11/22 08:58:23;;;;;;;;;0.00;0.00;;;;;8.48;81.06;98887.28;5070643;27;46337;-67
2022/11/22 09:00:49;;;;;;;;;1.00;1.00;;;;;8.55;80.62;98893.81;5066549;27;45473;-67
2022/11/22 09:03:14;;;;;;;;;1.00;1.00;;;;;8.54;80.17;98886.81;5090005;27;45472;-70
2022/11/22 09:05:40;;;;;;;;;9.50;0.50;;;;;8.66;79.50;98895.66;5091769;27;46608;-67
2022/11/22 09:08:05;;;;;;;;;2.00;0.25;;;;;8.67;79.22;98892.06;5048551;28;45488;-67
2022/11/22 09:10:31;;;;;;;;;1.00;0.00;;;;;8.75;79.10;98890.53;5057096;28;45711;-72
2022/11/22 09:12:57;;;;;;;;;1.00;1.00;;;;;8.78;79.11;98900.88;5065629;28;45545;-68
2022/11/22 09:15:22;;;;;;;;;1.00;1.00;;;;;8.79;78.52;98899.09;5075944;27;45527;-68
2022/11/22 09:17:48;;;;;;;;;0.50;0.50;;;;;8.76;79.24;98891.38;5073031;27;45335;-69
2022/11/22 09:20:16;;;;;;;;;1.75;1.50;;;;;8.83;78.06;98881.97;5056267;28;45511;-68
2022/11/22 09:22:42;;;;;;;;;2.75;1.50;;;;;8.76;76.94;98886.91;5078681;27;45593;-70
2022/11/22 09:25:08;;;;;;;;;2.00;0.25;;;;;8.98;77.07;98911.78;5074937;27;45434;-68
2022/11/22 09:27:34;;;;;;;;;0.00;0.00;;;;;9.06;76.92;98904.09;5078479;27;45325;-69
2022/11/22 09:30:00;;;;;;;;;2.00;0.00;;;;;9.11;77.59;98907.22;5060205;28;45337;-68
2022/11/22 09:32:26;;;;;;;;;1.25;1.00;;;;;9.10;76.44;98889.63;5078403;27;45391;-67
2022/11/22 09:34:52;;;;;;;;;0.67;0.67;;;;;8.98;77.03;98850.78;5059940;27;45716;-66
2022/11/22 09:37:18;;;;;;;;;1.00;1.00;;;;;9.40;76.99;98900.53;5078486;28;45243;-68
2022/11/22 09:39:45;;;;;;;;;0.25;0.25;;;;;9.42;75.69;98881.84;5078875;27;45359;-67
2022/11/22 09:42:30;;;;;;;;;2.00;1.00;;;;;9.52;74.98;98897.88;5081896;27;45295;-68
2022/11/22 09:45:12;;;;;;;;;1.00;1.00;;;;;9.45;74.27;98890.38;5094916;27;46020;-67
2022/11/22 09:48:01;;;;;;;;;3.50;1.00;;;;;9.57;74.53;98887.75;5078456;28;45340;-66
2022/11/22 09:50:50;;;;;;;;;2.00;0.00;;;;;9.66;74.06;98894.97;5078079;28;45525;-67
2022/11/22 09:53:24;;;;;;;;;2.75;0.00;;;;;9.65;73.63;98906.56;5078188;27;45608;-68
2022/11/22 09:55:58;;;;;;;;;1.00;1.00;;;;;9.55;72.99;98871.94;5059253;28;46591;-68
2022/11/22 09:58:30;;;;;;;;;1.00;1.00;;;;;9.88;72.47;98907.38;5077847;27;45476;-68
2022/11/22 10:01:06;;;;;;;;;1.00;1.00;;;;;9.95;73.67;98898.81;5093515;27;45515;-68
2022/11/22 10:03:57;;;;;;;;;0.75;0.75;;;;;9.99;72.16;98902.06;5077561;28;45334;-67
2022/11/22 10:06:30;;;;;;;;;2.75;1.00;;;;;9.86;72.20;98859.72;5059172;28;45315;-68
2022/11/22 10:09:07;;;;;;;;;1.75;1.00;;;;;10.12;71.66;98899.25;5042625;28;45245;-69
2022/11/22 10:11:41;;;;;;;;;4.25;1.00;;;;;10.24;71.82;98903.59;5077814;27;45291;-65
2022/11/22 10:14:43;;;;;;;;;3.00;0.67;;;;;10.28;71.23;98910.34;5080931;27;45158;-68
2022/11/22 10:17:46;;;;;;;;;5.00;1.00;;;;;10.32;70.90;98911.81;5080141;28;45297;-68
2022/11/22 10:20:28;;;;;;;;;3.00;1.00;;;;;10.41;71.59;98921.66;5059327;28;45491;-67
2022/11/22 10:23:00;;;;;;;;;2.67;2.67;;;;;10.50;71.03;98925.38;5059003;28;45399;-66
2022/11/22 10:25:34;;;;;;;;;5.50;2.00;;;;;10.57;71.08;98916.78;5077856;27;45257;-67
2022/11/22 10:28:14;;;;;;;;;5.00;1.00;;;;;10.61;70.33;98904.94;5078011;28;46073;-67
2022/11/22 10:30:53;;;;;;;;;1.00;1.00;;;;;10.74;69.75;98926.03;5078210;28;45826;-68
2022/11/22 10:33:43;;;;;;;;;2.00;2.00;;;;;10.76;69.74;98936.53;5059107;27;45351;-70
2022/11/22 10:36:17;;;;;;;;;0.33;0.33;;;;;10.89;68.97;98915.91;5077456;27;45532;-67
2022/11/22 10:38:49;;;;;;;;;1.00;1.00;;;;;10.93;68.67;98935.94;5058602;28;47025;-69
2022/11/22 10:41:32;;;;;;;;;2.00;1.00;;;;;10.88;69.85;98924.88;5058712;28;45345;-66
2022/11/22 10:44:10;;;;;;;;;1.00;1.00;;;;;10.92;68.45;98942.25;5092021;27;45420;-68
2022/11/22 10:46:54;;;;;;;;;2.33;2.00;;;;;10.88;68.50;98930.19;5077445;28;45327;-67
2022/11/22 10:49:35;;;;;;;;;1.00;1.00;;;;;11.01;68.17;98943.31;5058886;28;47616;-67
2022/11/22 10:52:12;;;;;;;;;1.00;0.00;;;;;11.12;67.43;98936.09;5077767;28;45409;-67
2022/11/22 10:54:46;;;;;;;;;6.00;1.00;;;;;11.21;68.37;98938.00;5077516;28;45358;-68
2022/11/22 10:57:18;;;;;;;;;2.00;1.00;;;;;11.17;68.45;98930.38;5092821;27;45411;-68
2022/11/22 11:00:14;;;;;;;;;5.00;5.00;;;;;11.22;67.21;98931.69;5092387;27;47264;-67
2022/11/22 11:02:40;;;;;;;;;2.00;1.00;;;;;11.28;67.36;98934.78;5076548;28;45456;-69
2022/11/22 11:05:14;;;;;;;;;3.33;0.33;;;;;11.38;66.56;98947.19;5076829;28;45424;-68
2022/11/22 11:07:51;;;;;;;;;0.00;0.00;;;;;11.39;65.12;98950.69;5077683;28;45466;-66
2022/11/22 11:10:21;;;;;;;;;1.00;1.00;;;;;11.23;67.42;98936.03;5060220;28;47042;-67
2022/11/22 11:12:57;;;;;;;;;2.00;0.00;;;;;11.40;65.38;98947.06;5061852;28;45349;-66
2022/11/22 11:15:32;;;;;;;;;4.33;1.33;;;;;11.40;65.76;98939.06;5078570;28;45271;-67
2022/11/22 11:18:06;;;;;;;;;1.00;0.00;;;;;11.54;66.25;98944.06;5078650;28;45256;-66
2022/11/22 11:20:37;;;;;;;;;2.00;0.00;;;;;11.53;64.79;98937.03;5076853;27;46355;-67
2022/11/22 11:23:03;;;;;;;;;0.67;0.67;;;;;11.63;65.30;98940.59;5058829;28;45516;-68
2022/11/22 11:25:33;;;;;;;;;0.33;0.00;;;;;11.63;64.02;98953.94;5077644;27;45334;-65
2022/11/22 11:28:19;;;;;;;;;2.00;0.00;;;;;11.69;62.67;98957.84;5077764;28;45253;-68
2022/11/22 11:30:55;;;;;;;;;0.00;0.00;;;;;11.69;62.77;98953.38;5076931;27;46585;-67
2022/11/22 11:33:30;;;;;;;;;3.33;0.00;;;;;11.73;63.55;98956.63;5082345;27;45430;-67
2022/11/22 11:36:09;;;;;;;;;3.33;0.00;;;;;11.75;64.40;98952.88;5083700;28;45501;-66
2022/11/22 11:38:43;;;;;;;;;4.00;1.00;;;;;11.77;63.75;98956.22;5083245;27;45606;-68
2022/11/22 11:41:17;;;;;;;;;3.00;1.00;;;;;11.72;64.29;98947.81;5063413;28;48504;-66
2022/11/22 11:43:46;;;;;;;;;3.00;1.00;;;;;11.76;64.90;98951.03;5081052;27;45405;-68
2022/11/22 11:46:20;;;;;;;;;12.00;1.00;;;;;11.81;63.90;98931.03;5080515;28;45250;-67
2022/11/22 11:48:48;;;;;;;;;1.67;0.00;;;;;11.72;63.99;98946.97;5080118;28;45362;-69
2022/11/22 11:51:21;;;;;;;;;3.00;2.00;;;;;11.57;63.25;98943.78;5079739;27;46068;-67
2022/11/22 11:54:09;;;;;;;;;4.00;1.00;;;;;11.60;63.51;98943.53;5079534;28;45378;-67
2022/11/22 11:56:57;;;;;;;;;4.67;1.00;;;;;11.67;63.59;98955.34;5079910;27;45426;-67
2022/11/22 11:59:49;;;;;;;;;2.33;1.00;;;;;11.73;63.45;98951.31;5079817;27;45453;-67
2022/11/22 12:02:31;;;;;;;;;0.67;0.33;;;;;11.67;63.51;98954.50;5080383;27;45490;-67
2022/11/22 12:05:06;;;;;;;;;2.33;2.00;;;;;11.64;63.82;98962.75;5080925;27;45288;-68
2022/11/22 12:07:34;;;;;;;;;2.00;1.00;;;;;11.73;62.97;98964.63;5081873;27;45310;-66